sensor_id;sensor_type;location;lat;lon;timestamp;P1;durP1;ratioP1;P2;durP2;ratioP2
79054;SDS011;68452;47.186;-1.528;2023-05-07T00:01:47;14.73;;;2.40;;
79054;SDS011;68452;47.186;-1.528;2023-05-07T00:04:13;10.98;;;2.25;;
79054;SDS011;68452;47.186;-1.528;2023-05-07T00:06:39;12.02;;;2.08;;
79054;SDS011;68452;47.186;-1.528;2023-05-07T00:09:05;12.88;;;2.15;;
79054;SDS011;68452;47.186;-1.528;2023-05-07T00:11:31;9.63;;;1.93;;
79054;SDS011;68452;47.186;-1.528;2023-05-07T00:13:58;14.02;;;2.38;;
79054;SDS011;68452;47.186;-1.528;2023-05-07T00:16:24;11.50;;;2.20;;
79054;SDS011;68452;47.186;-1.528;2023-05-07T00:18:49;14.27;;;3.17;;
79054;SDS011;68452;47.186;-1.528;2023-05-07T00:21:15;11.13;;;2.07;;
79054;SDS011;68452;47.186;-1.528;2023-05-07T00:23:41;12.68;;;2.28;;
79054;SDS011;68452;47.186;-1.528;2023-05-07T00:26:07;15.32;;;3.15;;
79054;SDS011;68452;47.186;-1.528;2023-05-07T00:28:33;12.90;;;2.80;;
79054;SDS011;68452;47.186;-1.528;2023-05-07T00:30:59;18.52;;;2.53;;
79054;SDS011;68452;47.186;-1.528;2023-05-07T00:33:25;12.20;;;1.98;;
79054;SDS011;68452;47.186;-1.528;2023-05-07T00:35:51;14.27;;;2.53;;
79054;SDS011;68452;47.186;-1.528;2023-05-07T00:38:19;14.55;;;3.70;;
79054;SDS011;68452;47.186;-1.528;2023-05-07T00:40:45;16.57;;;2.00;;
79054;SDS011;68452;47.186;-1.528;2023-05-07T00:43:11;13.98;;;2.45;;
79054;SDS011;68452;47.186;-1.528;2023-05-07T00:45:37;12.90;;;2.08;;
79054;SDS011;68452;47.186;-1.528;2023-05-07T00:48:03;18.48;;;2.70;;
79054;SDS011;68452;47.186;-1.528;2023-05-07T00:50:30;15.13;;;2.20;;
79054;SDS011;68452;47.186;-1.528;2023-05-07T00:52:56;15.27;;;3.28;;
79054;SDS011;68452;47.186;-1.528;2023-05-07T00:55:23;12.70;;;2.38;;
79054;SDS011;68452;47.186;-1.528;2023-05-07T00:57:49;13.07;;;2.17;;
79054;SDS011;68452;47.186;-1.528;2023-05-07T01:00:16;22.75;;;2.97;;
79054;SDS011;68452;47.186;-1.528;2023-05-07T01:02:43;12.33;;;2.10;;
79054;SDS011;68452;47.186;-1.528;2023-05-07T01:05:09;10.00;;;2.05;;
79054;SDS011;68452;47.186;-1.528;2023-05-07T01:07:40;10.05;;;2.10;;
79054;SDS011;68452;47.186;-1.528;2023-05-07T01:10:07;11.60;;;1.92;;
79054;SDS011;68452;47.186;-1.528;2023-05-07T01:12:35;11.82;;;2.03;;
79054;SDS011;68452;47.186;-1.528;2023-05-07T01:15:03;12.13;;;1.87;;
79054;SDS011;68452;47.186;-1.528;2023-05-07T01:17:34;13.20;;;2.05;;
79054;SDS011;68452;47.186;-1.528;2023-05-07T01:20:00;10.32;;;2.13;;
79054;SDS011;68452;47.186;-1.528;2023-05-07T01:22:33;12.48;;;1.50;;
79054;SDS011;68452;47.186;-1.528;2023-05-07T01:24:59;11.73;;;1.97;;
79054;SDS011;68452;47.186;-1.528;2023-05-07T01:27:27;10.00;;;1.98;;
79054;SDS011;68452;47.186;-1.528;2023-05-07T01:29:53;14.30;;;2.92;;
79054;SDS011;68452;47.186;-1.528;2023-05-07T01:32:19;16.40;;;2.28;;
79054;SDS011;68452;47.186;-1.528;2023-05-07T01:34:52;10.68;;;1.85;;
79054;SDS011;68452;47.186;-1.528;2023-05-07T01:37:19;10.40;;;2.23;;
79054;SDS011;68452;47.186;-1.528;2023-05-07T01:39:46;9.85;;;1.17;;
79054;SDS011;68452;47.186;-1.528;2023-05-07T01:42:13;5.80;;;1.10;;
79054;SDS011;68452;47.186;-1.528;2023-05-07T01:44:39;6.28;;;1.65;;
79054;SDS011;68452;47.186;-1.528;2023-05-07T01:47:04;5.27;;;1.37;;
79054;SDS011;68452;47.186;-1.528;2023-05-07T01:49:32;7.82;;;0.77;;
79054;SDS011;68452;47.186;-1.528;2023-05-07T01:51:58;7.25;;;0.90;;
79054;SDS011;68452;47.186;-1.528;2023-05-07T01:54:27;3.83;;;1.10;;
79054;SDS011;68452;47.186;-1.528;2023-05-07T01:56:53;5.47;;;0.80;;
79054;SDS011;68452;47.186;-1.528;2023-05-07T01:59:21;7.00;;;0.77;;
79054;SDS011;68452;47.186;-1.528;2023-05-07T02:01:47;6.60;;;0.80;;
79054;SDS011;68452;47.186;-1.528;2023-05-07T02:04:13;4.97;;;1.33;;
79054;SDS011;68452;47.186;-1.528;2023-05-07T02:06:38;10.10;;;1.10;;
79054;SDS011;68452;47.186;-1.528;2023-05-07T02:09:04;4.82;;;1.25;;
79054;SDS011;68452;47.186;-1.528;2023-05-07T02:11:30;4.73;;;0.80;;
79054;SDS011;68452;47.186;-1.528;2023-05-07T02:13:56;7.22;;;0.70;;
79054;SDS011;68452;47.186;-1.528;2023-05-07T02:16:22;5.03;;;1.35;;
79054;SDS011;68452;47.186;-1.528;2023-05-07T02:18:48;6.90;;;0.60;;
79054;SDS011;68452;47.186;-1.528;2023-05-07T02:21:14;6.50;;;1.42;;
79054;SDS011;68452;47.186;-1.528;2023-05-07T02:23:40;3.53;;;0.60;;
79054;SDS011;68452;47.186;-1.528;2023-05-07T02:26:07;4.25;;;0.63;;
79054;SDS011;68452;47.186;-1.528;2023-05-07T02:28:33;4.03;;;0.50;;
79054;SDS011;68452;47.186;-1.528;2023-05-07T02:31:02;3.97;;;0.60;;
79054;SDS011;68452;47.186;-1.528;2023-05-07T02:33:28;4.43;;;0.68;;
79054;SDS011;68452;47.186;-1.528;2023-05-07T02:35:55;3.80;;;0.60;;
79054;SDS011;68452;47.186;-1.528;2023-05-07T02:38:21;3.90;;;0.70;;
79054;SDS011;68452;47.186;-1.528;2023-05-07T02:40:48;8.10;;;0.50;;
79054;SDS011;68452;47.186;-1.528;2023-05-07T02:43:14;5.20;;;0.40;;
79054;SDS011;68452;47.186;-1.528;2023-05-07T02:45:40;3.33;;;0.77;;
79054;SDS011;68452;47.186;-1.528;2023-05-07T02:48:05;4.30;;;0.70;;
79054;SDS011;68452;47.186;-1.528;2023-05-07T02:50:32;4.38;;;0.60;;
79054;SDS011;68452;47.186;-1.528;2023-05-07T02:52:58;4.85;;;0.80;;
79054;SDS011;68452;47.186;-1.528;2023-05-07T02:55:24;2.28;;;0.52;;
79054;SDS011;68452;47.186;-1.528;2023-05-07T02:57:50;6.70;;;0.73;;
79054;SDS011;68452;47.186;-1.528;2023-05-07T03:00:17;3.33;;;0.45;;
79054;SDS011;68452;47.186;-1.528;2023-05-07T03:02:44;3.97;;;0.60;;
79054;SDS011;68452;47.186;-1.528;2023-05-07T03:05:10;3.23;;;0.77;;
79054;SDS011;68452;47.186;-1.528;2023-05-07T03:07:37;4.70;;;0.98;;
79054;SDS011;68452;47.186;-1.528;2023-05-07T03:10:04;5.78;;;0.75;;
79054;SDS011;68452;47.186;-1.528;2023-05-07T03:12:30;4.93;;;0.60;;
79054;SDS011;68452;47.186;-1.528;2023-05-07T03:14:56;5.43;;;0.60;;
79054;SDS011;68452;47.186;-1.528;2023-05-07T03:17:22;11.83;;;1.00;;
79054;SDS011;68452;47.186;-1.528;2023-05-07T03:19:48;5.63;;;1.08;;
79054;SDS011;68452;47.186;-1.528;2023-05-07T03:22:14;6.80;;;1.08;;
79054;SDS011;68452;47.186;-1.528;2023-05-07T03:24:40;7.07;;;0.77;;
79054;SDS011;68452;47.186;-1.528;2023-05-07T03:27:05;8.77;;;1.75;;
79054;SDS011;68452;47.186;-1.528;2023-05-07T03:29:31;6.03;;;1.38;;
79054;SDS011;68452;47.186;-1.528;2023-05-07T03:31:57;3.37;;;0.80;;
79054;SDS011;68452;47.186;-1.528;2023-05-07T03:34:23;4.90;;;0.82;;
79054;SDS011;68452;47.186;-1.528;2023-05-07T03:36:49;8.77;;;0.93;;
79054;SDS011;68452;47.186;-1.528;2023-05-07T03:39:15;7.73;;;1.30;;
79054;SDS011;68452;47.186;-1.528;2023-05-07T03:41:41;6.57;;;0.65;;
79054;SDS011;68452;47.186;-1.528;2023-05-07T03:44:07;11.18;;;1.45;;
79054;SDS011;68452;47.186;-1.528;2023-05-07T03:46:33;8.70;;;0.80;;
79054;SDS011;68452;47.186;-1.528;2023-05-07T03:48:59;3.60;;;0.73;;
79054;SDS011;68452;47.186;-1.528;2023-05-07T03:51:25;12.45;;;1.42;;
79054;SDS011;68452;47.186;-1.528;2023-05-07T03:53:52;12.38;;;0.98;;
79054;SDS011;68452;47.186;-1.528;2023-05-07T03:56:18;8.77;;;1.50;;
79054;SDS011;68452;47.186;-1.528;2023-05-07T03:58:44;7.80;;;1.00;;
79054;SDS011;68452;47.186;-1.528;2023-05-07T04:01:10;8.27;;;1.27;;
79054;SDS011;68452;47.186;-1.528;2023-05-07T04:03:38;5.85;;;0.77;;
79054;SDS011;68452;47.186;-1.528;2023-05-07T04:06:04;7.50;;;1.35;;
79054;SDS011;68452;47.186;-1.528;2023-05-07T04:08:29;6.50;;;1.77;;
79054;SDS011;68452;47.186;-1.528;2023-05-07T04:10:58;6.37;;;1.00;;
79054;SDS011;68452;47.186;-1.528;2023-05-07T04:13:24;6.25;;;1.42;;
79054;SDS011;68452;47.186;-1.528;2023-05-07T04:15:52;7.88;;;0.95;;
79054;SDS011;68452;47.186;-1.528;2023-05-07T04:18:19;8.73;;;1.55;;
79054;SDS011;68452;47.186;-1.528;2023-05-07T04:20:45;6.97;;;1.50;;
79054;SDS011;68452;47.186;-1.528;2023-05-07T04:23:11;7.30;;;1.15;;
79054;SDS011;68452;47.186;-1.528;2023-05-07T04:25:36;4.55;;;1.00;;
79054;SDS011;68452;47.186;-1.528;2023-05-07T04:28:02;8.13;;;1.17;;
79054;SDS011;68452;47.186;-1.528;2023-05-07T04:30:28;4.90;;;0.90;;
79054;SDS011;68452;47.186;-1.528;2023-05-07T04:32:54;7.78;;;1.08;;
79054;SDS011;68452;47.186;-1.528;2023-05-07T04:35:21;4.97;;;1.15;;
79054;SDS011;68452;47.186;-1.528;2023-05-07T04:37:47;9.32;;;1.33;;
79054;SDS011;68452;47.186;-1.528;2023-05-07T04:40:12;10.17;;;1.27;;
79054;SDS011;68452;47.186;-1.528;2023-05-07T04:42:39;11.45;;;1.95;;
79054;SDS011;68452;47.186;-1.528;2023-05-07T04:45:04;13.18;;;1.73;;
79054;SDS011;68452;47.186;-1.528;2023-05-07T04:47:31;8.60;;;1.20;;
79054;SDS011;68452;47.186;-1.528;2023-05-07T04:49:57;9.30;;;1.45;;
79054;SDS011;68452;47.186;-1.528;2023-05-07T04:52:23;7.63;;;1.08;;
79054;SDS011;68452;47.186;-1.528;2023-05-07T04:54:49;8.40;;;1.08;;
79054;SDS011;68452;47.186;-1.528;2023-05-07T04:57:15;9.17;;;1.30;;
79054;SDS011;68452;47.186;-1.528;2023-05-07T04:59:42;6.82;;;0.95;;
79054;SDS011;68452;47.186;-1.528;2023-05-07T05:02:12;7.25;;;1.30;;
79054;SDS011;68452;47.186;-1.528;2023-05-07T05:04:37;8.70;;;0.98;;
79054;SDS011;68452;47.186;-1.528;2023-05-07T05:07:03;10.73;;;1.03;;
79054;SDS011;68452;47.186;-1.528;2023-05-07T05:09:29;10.70;;;1.27;;
79054;SDS011;68452;47.186;-1.528;2023-05-07T05:11:55;13.77;;;1.13;;
79054;SDS011;68452;47.186;-1.528;2023-05-07T05:14:21;13.33;;;1.57;;
79054;SDS011;68452;47.186;-1.528;2023-05-07T05:16:47;12.63;;;1.17;;
79054;SDS011;68452;47.186;-1.528;2023-05-07T05:19:13;8.38;;;1.20;;
79054;SDS011;68452;47.186;-1.528;2023-05-07T05:21:39;11.40;;;1.40;;
79054;SDS011;68452;47.186;-1.528;2023-05-07T05:24:05;9.88;;;2.15;;
79054;SDS011;68452;47.186;-1.528;2023-05-07T05:26:31;14.15;;;1.70;;
79054;SDS011;68452;47.186;-1.528;2023-05-07T05:28:57;8.97;;;1.23;;
79054;SDS011;68452;47.186;-1.528;2023-05-07T05:31:22;5.25;;;1.00;;
79054;SDS011;68452;47.186;-1.528;2023-05-07T05:33:48;8.43;;;1.67;;
79054;SDS011;68452;47.186;-1.528;2023-05-07T05:36:14;8.40;;;1.77;;
79054;SDS011;68452;47.186;-1.528;2023-05-07T05:38:40;10.77;;;1.75;;
79054;SDS011;68452;47.186;-1.528;2023-05-07T05:41:06;5.87;;;1.20;;
79054;SDS011;68452;47.186;-1.528;2023-05-07T05:43:31;4.00;;;1.15;;
79054;SDS011;68452;47.186;-1.528;2023-05-07T05:45:57;7.90;;;1.30;;
79054;SDS011;68452;47.186;-1.528;2023-05-07T05:48:24;7.03;;;0.67;;
79054;SDS011;68452;47.186;-1.528;2023-05-07T05:50:49;11.93;;;0.90;;
79054;SDS011;68452;47.186;-1.528;2023-05-07T05:53:15;7.15;;;1.13;;
79054;SDS011;68452;47.186;-1.528;2023-05-07T05:55:41;7.73;;;1.00;;
79054;SDS011;68452;47.186;-1.528;2023-05-07T05:58:07;5.40;;;1.00;;
79054;SDS011;68452;47.186;-1.528;2023-05-07T06:00:34;7.05;;;1.73;;
79054;SDS011;68452;47.186;-1.528;2023-05-07T06:03:00;5.25;;;1.40;;
79054;SDS011;68452;47.186;-1.528;2023-05-07T06:05:25;5.70;;;1.00;;
79054;SDS011;68452;47.186;-1.528;2023-05-07T06:07:51;8.18;;;1.35;;
79054;SDS011;68452;47.186;-1.528;2023-05-07T06:10:17;6.05;;;1.08;;
79054;SDS011;68452;47.186;-1.528;2023-05-07T06:12:44;5.87;;;0.97;;
79054;SDS011;68452;47.186;-1.528;2023-05-07T06:15:10;16.15;;;1.00;;
79054;SDS011;68452;47.186;-1.528;2023-05-07T06:17:36;5.97;;;0.60;;
79054;SDS011;68452;47.186;-1.528;2023-05-07T06:20:02;3.43;;;0.70;;
79054;SDS011;68452;47.186;-1.528;2023-05-07T06:22:28;3.58;;;1.42;;
79054;SDS011;68452;47.186;-1.528;2023-05-07T06:24:54;5.18;;;0.70;;
79054;SDS011;68452;47.186;-1.528;2023-05-07T06:27:19;7.30;;;1.00;;
79054;SDS011;68452;47.186;-1.528;2023-05-07T06:29:47;4.15;;;0.70;;
79054;SDS011;68452;47.186;-1.528;2023-05-07T06:32:13;6.68;;;1.17;;
79054;SDS011;68452;47.186;-1.528;2023-05-07T06:34:39;2.47;;;0.30;;
79054;SDS011;68452;47.186;-1.528;2023-05-07T06:37:06;5.53;;;0.60;;
79054;SDS011;68452;47.186;-1.528;2023-05-07T06:39:32;5.30;;;0.40;;
79054;SDS011;68452;47.186;-1.528;2023-05-07T06:41:59;7.75;;;0.70;;
79054;SDS011;68452;47.186;-1.528;2023-05-07T06:44:25;3.88;;;0.47;;
79054;SDS011;68452;47.186;-1.528;2023-05-07T06:46:51;5.33;;;0.77;;
79054;SDS011;68452;47.186;-1.528;2023-05-07T06:49:17;3.13;;;0.65;;
79054;SDS011;68452;47.186;-1.528;2023-05-07T06:51:43;2.80;;;0.38;;
79054;SDS011;68452;47.186;-1.528;2023-05-07T06:54:09;3.50;;;0.90;;
79054;SDS011;68452;47.186;-1.528;2023-05-07T06:56:34;5.88;;;0.40;;
79054;SDS011;68452;47.186;-1.528;2023-05-07T06:59:01;2.65;;;0.43;;
79054;SDS011;68452;47.186;-1.528;2023-05-07T07:01:28;4.35;;;0.52;;
79054;SDS011;68452;47.186;-1.528;2023-05-07T07:03:54;4.10;;;0.20;;
79054;SDS011;68452;47.186;-1.528;2023-05-07T07:06:20;3.10;;;0.40;;
79054;SDS011;68452;47.186;-1.528;2023-05-07T07:08:45;1.35;;;0.20;;
79054;SDS011;68452;47.186;-1.528;2023-05-07T07:11:11;5.20;;;0.63;;
79054;SDS011;68452;47.186;-1.528;2023-05-07T07:13:37;2.33;;;0.40;;
79054;SDS011;68452;47.186;-1.528;2023-05-07T07:16:03;1.35;;;0.30;;
79054;SDS011;68452;47.186;-1.528;2023-05-07T07:18:29;1.73;;;0.50;;
79054;SDS011;68452;47.186;-1.528;2023-05-07T07:20:55;3.43;;;0.97;;
79054;SDS011;68452;47.186;-1.528;2023-05-07T07:23:21;2.90;;;0.40;;
79054;SDS011;68452;47.186;-1.528;2023-05-07T07:25:47;1.92;;;0.40;;
79054;SDS011;68452;47.186;-1.528;2023-05-07T07:28:13;6.20;;;0.95;;
79054;SDS011;68452;47.186;-1.528;2023-05-07T07:30:39;2.80;;;0.90;;
79054;SDS011;68452;47.186;-1.528;2023-05-07T07:33:05;5.80;;;0.65;;
79054;SDS011;68452;47.186;-1.528;2023-05-07T07:35:31;4.65;;;0.70;;
79054;SDS011;68452;47.186;-1.528;2023-05-07T07:37:58;3.03;;;0.40;;
79054;SDS011;68452;47.186;-1.528;2023-05-07T07:40:24;4.40;;;0.73;;
79054;SDS011;68452;47.186;-1.528;2023-05-07T07:42:50;6.45;;;0.60;;
79054;SDS011;68452;47.186;-1.528;2023-05-07T07:45:16;2.17;;;0.50;;
79054;SDS011;68452;47.186;-1.528;2023-05-07T07:47:42;10.77;;;1.10;;
79054;SDS011;68452;47.186;-1.528;2023-05-07T07:50:08;4.22;;;1.00;;
79054;SDS011;68452;47.186;-1.528;2023-05-07T07:52:35;4.87;;;1.00;;
79054;SDS011;68452;47.186;-1.528;2023-05-07T07:55:01;4.10;;;1.13;;
79054;SDS011;68452;47.186;-1.528;2023-05-07T07:57:27;4.25;;;0.90;;
79054;SDS011;68452;47.186;-1.528;2023-05-07T07:59:53;5.97;;;1.63;;
79054;SDS011;68452;47.186;-1.528;2023-05-07T08:02:19;2.47;;;0.70;;
79054;SDS011;68452;47.186;-1.528;2023-05-07T08:04:45;5.65;;;1.02;;
79054;SDS011;68452;47.186;-1.528;2023-05-07T08:07:11;6.40;;;0.80;;
79054;SDS011;68452;47.186;-1.528;2023-05-07T08:09:38;2.63;;;0.50;;
79054;SDS011;68452;47.186;-1.528;2023-05-07T08:12:05;2.88;;;0.50;;
79054;SDS011;68452;47.186;-1.528;2023-05-07T08:14:33;2.27;;;0.87;;
79054;SDS011;68452;47.186;-1.528;2023-05-07T08:17:00;3.53;;;0.65;;
79054;SDS011;68452;47.186;-1.528;2023-05-07T08:19:28;2.80;;;0.50;;
79054;SDS011;68452;47.186;-1.528;2023-05-07T08:21:53;5.25;;;0.88;;
79054;SDS011;68452;47.186;-1.528;2023-05-07T08:24:20;4.83;;;0.43;;
79054;SDS011;68452;47.186;-1.528;2023-05-07T08:26:46;5.35;;;0.80;;
79054;SDS011;68452;47.186;-1.528;2023-05-07T08:29:12;3.63;;;0.55;;
79054;SDS011;68452;47.186;-1.528;2023-05-07T08:31:38;1.70;;;0.55;;
79054;SDS011;68452;47.186;-1.528;2023-05-07T08:34:04;1.53;;;0.43;;
79054;SDS011;68452;47.186;-1.528;2023-05-07T08:36:31;1.83;;;0.30;;
79054;SDS011;68452;47.186;-1.528;2023-05-07T08:38:57;5.07;;;0.40;;
79054;SDS011;68452;47.186;-1.528;2023-05-07T08:41:24;1.10;;;0.35;;
79054;SDS011;68452;47.186;-1.528;2023-05-07T08:43:50;0.87;;;0.20;;
79054;SDS011;68452;47.186;-1.528;2023-05-07T08:46:17;2.33;;;0.30;;
79054;SDS011;68452;47.186;-1.528;2023-05-07T08:48:50;2.85;;;0.80;;
79054;SDS011;68452;47.186;-1.528;2023-05-07T08:51:17;1.65;;;0.30;;
79054;SDS011;68452;47.186;-1.528;2023-05-07T08:53:46;1.70;;;0.50;;
79054;SDS011;68452;47.186;-1.528;2023-05-07T08:56:13;3.00;;;0.70;;
79054;SDS011;68452;47.186;-1.528;2023-05-07T08:58:45;1.80;;;0.45;;
79054;SDS011;68452;47.186;-1.528;2023-05-07T09:01:14;1.88;;;0.68;;
79054;SDS011;68452;47.186;-1.528;2023-05-07T09:03:41;4.30;;;0.70;;
79054;SDS011;68452;47.186;-1.528;2023-05-07T09:06:10;2.70;;;0.80;;
79054;SDS011;68452;47.186;-1.528;2023-05-07T09:08:36;2.07;;;0.53;;
79054;SDS011;68452;47.186;-1.528;2023-05-07T09:11:02;2.67;;;0.60;;
79054;SDS011;68452;47.186;-1.528;2023-05-07T09:13:28;2.03;;;0.60;;
79054;SDS011;68452;47.186;-1.528;2023-05-07T09:15:55;2.65;;;0.98;;
79054;SDS011;68452;47.186;-1.528;2023-05-07T09:18:21;1.50;;;0.60;;
79054;SDS011;68452;47.186;-1.528;2023-05-07T09:20:49;4.00;;;0.90;;
79054;SDS011;68452;47.186;-1.528;2023-05-07T09:23:15;3.30;;;1.00;;
79054;SDS011;68452;47.186;-1.528;2023-05-07T09:25:41;2.72;;;1.20;;
79054;SDS011;68452;47.186;-1.528;2023-05-07T09:28:07;4.57;;;1.30;;
79054;SDS011;68452;47.186;-1.528;2023-05-07T09:30:35;4.10;;;1.42;;
79054;SDS011;68452;47.186;-1.528;2023-05-07T09:33:01;3.33;;;1.20;;
79054;SDS011;68452;47.186;-1.528;2023-05-07T09:35:29;2.72;;;1.00;;
79054;SDS011;68452;47.186;-1.528;2023-05-07T09:37:57;4.13;;;1.40;;
79054;SDS011;68452;47.186;-1.528;2023-05-07T09:40:25;5.17;;;1.57;;
79054;SDS011;68452;47.186;-1.528;2023-05-07T09:42:52;4.35;;;1.92;;
79054;SDS011;68452;47.186;-1.528;2023-05-07T09:45:22;6.45;;;1.73;;
79054;SDS011;68452;47.186;-1.528;2023-05-07T09:47:50;4.18;;;1.80;;
79054;SDS011;68452;47.186;-1.528;2023-05-07T09:50:27;4.15;;;1.67;;
79054;SDS011;68452;47.186;-1.528;2023-05-07T09:52:58;4.50;;;1.97;;
79054;SDS011;68452;47.186;-1.528;2023-05-07T09:55:25;3.55;;;1.42;;
79054;SDS011;68452;47.186;-1.528;2023-05-07T09:57:52;3.03;;;1.13;;
79054;SDS011;68452;47.186;-1.528;2023-05-07T10:00:19;3.17;;;1.30;;
79054;SDS011;68452;47.186;-1.528;2023-05-07T10:02:49;2.95;;;1.05;;
79054;SDS011;68452;47.186;-1.528;2023-05-07T10:05:21;3.67;;;1.10;;
79054;SDS011;68452;47.186;-1.528;2023-05-07T10:07:47;2.70;;;0.95;;
79054;SDS011;68452;47.186;-1.528;2023-05-07T10:10:14;1.90;;;0.50;;
79054;SDS011;68452;47.186;-1.528;2023-05-07T10:12:42;2.13;;;0.43;;
79054;SDS011;68452;47.186;-1.528;2023-05-07T10:15:09;1.98;;;0.60;;
79054;SDS011;68452;47.186;-1.528;2023-05-07T10:17:36;1.73;;;0.30;;
79054;SDS011;68452;47.186;-1.528;2023-05-07T10:20:04;1.15;;;0.30;;
79054;SDS011;68452;47.186;-1.528;2023-05-07T10:22:37;1.85;;;0.50;;
79054;SDS011;68452;47.186;-1.528;2023-05-07T10:25:09;1.05;;;0.20;;
79054;SDS011;68452;47.186;-1.528;2023-05-07T10:27:43;2.45;;;0.47;;
79054;SDS011;68452;47.186;-1.528;2023-05-07T10:30:13;2.03;;;0.27;;
79054;SDS011;68452;47.186;-1.528;2023-05-07T10:33:01;2.05;;;0.68;;
79054;SDS011;68452;47.186;-1.528;2023-05-07T10:35:43;1.65;;;0.38;;
79054;SDS011;68452;47.186;-1.528;2023-05-07T10:38:12;2.40;;;0.65;;
79054;SDS011;68452;47.186;-1.528;2023-05-07T10:40:38;1.15;;;0.40;;
79054;SDS011;68452;47.186;-1.528;2023-05-07T10:43:05;1.33;;;0.30;;
79054;SDS011;68452;47.186;-1.528;2023-05-07T10:45:32;1.88;;;0.50;;
79054;SDS011;68452;47.186;-1.528;2023-05-07T10:48:11;1.23;;;0.30;;
79054;SDS011;68452;47.186;-1.528;2023-05-07T10:50:40;1.63;;;0.30;;
79054;SDS011;68452;47.186;-1.528;2023-05-07T10:55:49;0.53;;;0.20;;
79054;SDS011;68452;47.186;-1.528;2023-05-07T10:58:29;2.25;;;0.60;;
79054;SDS011;68452;47.186;-1.528;2023-05-07T11:01:01;1.27;;;0.20;;
79054;SDS011;68452;47.186;-1.528;2023-05-07T11:03:28;0.60;;;0.17;;
79054;SDS011;68452;47.186;-1.528;2023-05-07T11:06:10;1.73;;;0.20;;
79054;SDS011;68452;47.186;-1.528;2023-05-07T11:11:20;0.57;;;0.20;;
79054;SDS011;68452;47.186;-1.528;2023-05-07T11:14:13;2.70;;;0.75;;
79054;SDS011;68452;47.186;-1.528;2023-05-07T11:16:40;0.65;;;0.20;;
79054;SDS011;68452;47.186;-1.528;2023-05-07T11:19:08;0.60;;;0.20;;
79054;SDS011;68452;47.186;-1.528;2023-05-07T11:24:01;2.83;;;0.20;;
79054;SDS011;68452;47.186;-1.528;2023-05-07T11:26:30;2.70;;;0.20;;
79054;SDS011;68452;47.186;-1.528;2023-05-07T11:29:10;1.08;;;0.20;;
79054;SDS011;68452;47.186;-1.528;2023-05-07T11:31:42;0.93;;;0.10;;
79054;SDS011;68452;47.186;-1.528;2023-05-07T11:34:09;2.10;;;0.20;;
79054;SDS011;68452;47.186;-1.528;2023-05-07T11:36:41;1.33;;;0.20;;
79054;SDS011;68452;47.186;-1.528;2023-05-07T11:39:27;0.77;;;0.20;;
79054;SDS011;68452;47.186;-1.528;2023-05-07T11:41:56;0.50;;;0.20;;
79054;SDS011;68452;47.186;-1.528;2023-05-07T11:44:22;0.40;;;0.13;;
79054;SDS011;68452;47.186;-1.528;2023-05-07T11:46:48;0.90;;;0.20;;
79054;SDS011;68452;47.186;-1.528;2023-05-07T11:49:14;1.35;;;0.40;;
79054;SDS011;68452;47.186;-1.528;2023-05-07T11:51:40;0.82;;;0.15;;
79054;SDS011;68452;47.186;-1.528;2023-05-07T11:54:09;1.00;;;0.20;;
79054;SDS011;68452;47.186;-1.528;2023-05-07T11:56:36;4.63;;;0.30;;
79054;SDS011;68452;47.186;-1.528;2023-05-07T11:59:03;0.40;;;0.10;;
79054;SDS011;68452;47.186;-1.528;2023-05-07T12:01:29;2.13;;;0.20;;
79054;SDS011;68452;47.186;-1.528;2023-05-07T12:03:55;0.88;;;0.30;;
79054;SDS011;68452;47.186;-1.528;2023-05-07T12:06:21;1.10;;;0.30;;
79054;SDS011;68452;47.186;-1.528;2023-05-07T12:08:47;1.53;;;0.47;;
79054;SDS011;68452;47.186;-1.528;2023-05-07T12:11:14;1.05;;;0.20;;
79054;SDS011;68452;47.186;-1.528;2023-05-07T12:13:42;2.72;;;0.43;;
79054;SDS011;68452;47.186;-1.528;2023-05-07T12:16:09;3.22;;;0.65;;
79054;SDS011;68452;47.186;-1.528;2023-05-07T12:18:36;3.37;;;1.07;;
79054;SDS011;68452;47.186;-1.528;2023-05-07T12:21:03;5.63;;;1.67;;
79054;SDS011;68452;47.186;-1.528;2023-05-07T12:23:34;3.28;;;0.57;;
79054;SDS011;68452;47.186;-1.528;2023-05-07T12:26:01;4.40;;;0.60;;
79054;SDS011;68452;47.186;-1.528;2023-05-07T12:28:27;6.25;;;1.70;;
79054;SDS011;68452;47.186;-1.528;2023-05-07T12:30:53;1.73;;;0.20;;
79054;SDS011;68452;47.186;-1.528;2023-05-07T12:33:25;4.78;;;1.05;;
79054;SDS011;68452;47.186;-1.528;2023-05-07T12:35:53;3.72;;;0.80;;
79054;SDS011;68452;47.186;-1.528;2023-05-07T12:38:21;0.50;;;0.20;;
79054;SDS011;68452;47.186;-1.528;2023-05-07T12:40:48;1.15;;;0.10;;
79054;SDS011;68452;47.186;-1.528;2023-05-07T12:43:24;1.40;;;0.20;;
79054;SDS011;68452;47.186;-1.528;2023-05-07T12:45:53;1.77;;;0.30;;
79054;SDS011;68452;47.186;-1.528;2023-05-07T12:48:21;1.00;;;0.20;;
79054;SDS011;68452;47.186;-1.528;2023-05-07T12:50:51;1.27;;;0.20;;
79054;SDS011;68452;47.186;-1.528;2023-05-07T12:53:19;0.85;;;0.38;;
79054;SDS011;68452;47.186;-1.528;2023-05-07T12:55:47;1.00;;;0.30;;
79054;SDS011;68452;47.186;-1.528;2023-05-07T12:58:17;2.65;;;0.30;;
79054;SDS011;68452;47.186;-1.528;2023-05-07T13:00:54;0.45;;;0.10;;
79054;SDS011;68452;47.186;-1.528;2023-05-07T13:03:57;1.13;;;0.20;;
79054;SDS011;68452;47.186;-1.528;2023-05-07T13:06:15;1.40;;;0.20;;
79054;SDS011;68452;47.186;-1.528;2023-05-07T13:08:41;1.90;;;0.20;;
79054;SDS011;68452;47.186;-1.528;2023-05-07T13:11:10;1.67;;;0.10;;
79054;SDS011;68452;47.186;-1.528;2023-05-07T13:13:38;1.75;;;0.20;;
79054;SDS011;68452;47.186;-1.528;2023-05-07T13:16:05;2.33;;;0.22;;
79054;SDS011;68452;47.186;-1.528;2023-05-07T13:18:33;0.83;;;0.20;;
79054;SDS011;68452;47.186;-1.528;2023-05-07T13:20:59;1.45;;;0.20;;
79054;SDS011;68452;47.186;-1.528;2023-05-07T13:23:25;0.82;;;0.20;;
79054;SDS011;68452;47.186;-1.528;2023-05-07T13:25:52;0.95;;;0.20;;
79054;SDS011;68452;47.186;-1.528;2023-05-07T13:28:19;2.42;;;0.20;;
79054;SDS011;68452;47.186;-1.528;2023-05-07T13:30:45;0.57;;;0.13;;
79054;SDS011;68452;47.186;-1.528;2023-05-07T13:33:12;0.57;;;0.20;;
79054;SDS011;68452;47.186;-1.528;2023-05-07T13:35:38;0.82;;;0.20;;
79054;SDS011;68452;47.186;-1.528;2023-05-07T13:38:04;1.55;;;0.40;;
79054;SDS011;68452;47.186;-1.528;2023-05-07T13:40:30;0.97;;;0.50;;
79054;SDS011;68452;47.186;-1.528;2023-05-07T13:42:59;1.05;;;0.22;;
79054;SDS011;68452;47.186;-1.528;2023-05-07T13:45:28;1.10;;;0.20;;
79054;SDS011;68452;47.186;-1.528;2023-05-07T13:47:55;1.20;;;0.20;;
79054;SDS011;68452;47.186;-1.528;2023-05-07T13:50:22;0.50;;;0.20;;
79054;SDS011;68452;47.186;-1.528;2023-05-07T13:52:48;1.30;;;0.20;;
79054;SDS011;68452;47.186;-1.528;2023-05-07T13:55:17;1.50;;;0.20;;
79054;SDS011;68452;47.186;-1.528;2023-05-07T13:57:43;2.55;;;0.20;;
79054;SDS011;68452;47.186;-1.528;2023-05-07T14:00:10;0.82;;;0.20;;
79054;SDS011;68452;47.186;-1.528;2023-05-07T14:02:36;0.65;;;0.20;;
79054;SDS011;68452;47.186;-1.528;2023-05-07T14:05:02;0.50;;;0.20;;
79054;SDS011;68452;47.186;-1.528;2023-05-07T14:07:28;4.22;;;0.50;;
79054;SDS011;68452;47.186;-1.528;2023-05-07T14:09:54;0.70;;;0.20;;
79054;SDS011;68452;47.186;-1.528;2023-05-07T14:12:20;0.95;;;0.32;;
79054;SDS011;68452;47.186;-1.528;2023-05-07T14:14:46;0.70;;;0.20;;
79054;SDS011;68452;47.186;-1.528;2023-05-07T14:17:12;1.25;;;0.30;;
79054;SDS011;68452;47.186;-1.528;2023-05-07T14:19:38;1.98;;;0.43;;
79054;SDS011;68452;47.186;-1.528;2023-05-07T14:22:04;0.70;;;0.30;;
79054;SDS011;68452;47.186;-1.528;2023-05-07T14:24:30;0.80;;;0.20;;
79054;SDS011;68452;47.186;-1.528;2023-05-07T14:26:55;0.80;;;0.40;;
79054;SDS011;68452;47.186;-1.528;2023-05-07T14:29:21;0.68;;;0.20;;
79054;SDS011;68452;47.186;-1.528;2023-05-07T14:31:47;1.15;;;0.20;;
79054;SDS011;68452;47.186;-1.528;2023-05-07T14:34:13;1.40;;;0.20;;
79054;SDS011;68452;47.186;-1.528;2023-05-07T14:36:39;1.05;;;0.47;;
79054;SDS011;68452;47.186;-1.528;2023-05-07T14:39:05;1.08;;;0.45;;
79054;SDS011;68452;47.186;-1.528;2023-05-07T14:41:31;1.00;;;0.50;;